sensor_id;sensor_type;location;lat;lon;timestamp;P1;durP1;ratioP1;P2;durP2;ratioP2
10902;SDS011;5504;47.312;11.060;2023-02-21T00:02:08;2.27;;;1.70;;
10902;SDS011;5504;47.312;11.060;2023-02-21T00:04:53;2.40;;;1.93;;
10902;SDS011;5504;47.312;11.060;2023-02-21T00:07:37;2.23;;;1.90;;
10902;SDS011;5504;47.312;11.060;2023-02-21T00:10:21;4.30;;;2.13;;
10902;SDS011;5504;47.312;11.060;2023-02-21T00:13:05;4.43;;;1.70;;
10902;SDS011;5504;47.312;11.060;2023-02-21T00:15:49;2.70;;;1.93;;
10902;SDS011;5504;47.312;11.060;2023-02-21T00:18:34;4.43;;;1.73;;
10902;SDS011;5504;47.312;11.060;2023-02-21T00:21:19;3.80;;;2.07;;
10902;SDS011;5504;47.312;11.060;2023-02-21T00:24:03;2.37;;;1.97;;
10902;SDS011;5504;47.312;11.060;2023-02-21T00:26:48;3.77;;;2.00;;
10902;SDS011;5504;47.312;11.060;2023-02-21T00:29:33;3.83;;;1.90;;
10902;SDS011;5504;47.312;11.060;2023-02-21T00:32:17;3.80;;;2.00;;
10902;SDS011;5504;47.312;11.060;2023-02-21T00:35:01;2.77;;;1.90;;
10902;SDS011;5504;47.312;11.060;2023-02-21T00:37:51;2.47;;;2.03;;
10902;SDS011;5504;47.312;11.060;2023-02-21T00:40:36;4.00;;;1.93;;
10902;SDS011;5504;47.312;11.060;2023-02-21T00:43:26;3.23;;;1.87;;
10902;SDS011;5504;47.312;11.060;2023-02-21T00:46:15;3.20;;;1.93;;
10902;SDS011;5504;47.312;11.060;2023-02-21T00:48:59;2.80;;;2.07;;
10902;SDS011;5504;47.312;11.060;2023-02-21T00:51:44;2.33;;;1.80;;
10902;SDS011;5504;47.312;11.060;2023-02-21T00:54:28;3.83;;;1.73;;
10902;SDS011;5504;47.312;11.060;2023-02-21T00:57:12;3.00;;;1.80;;
10902;SDS011;5504;47.312;11.060;2023-02-21T00:59:57;2.40;;;1.70;;
10902;SDS011;5504;47.312;11.060;2023-02-21T01:02:41;3.13;;;1.63;;
10902;SDS011;5504;47.312;11.060;2023-02-21T01:05:26;2.30;;;1.80;;
10902;SDS011;5504;47.312;11.060;2023-02-21T01:08:11;2.10;;;1.90;;
10902;SDS011;5504;47.312;11.060;2023-02-21T01:10:55;2.03;;;1.60;;
10902;SDS011;5504;47.312;11.060;2023-02-21T01:13:39;2.27;;;1.90;;
10902;SDS011;5504;47.312;11.060;2023-02-21T01:16:23;3.17;;;2.00;;
10902;SDS011;5504;47.312;11.060;2023-02-21T01:19:10;3.20;;;2.00;;
10902;SDS011;5504;47.312;11.060;2023-02-21T01:21:54;3.00;;;1.77;;
10902;SDS011;5504;47.312;11.060;2023-02-21T01:24:38;2.70;;;1.90;;
10902;SDS011;5504;47.312;11.060;2023-02-21T01:27:22;4.17;;;1.73;;
10902;SDS011;5504;47.312;11.060;2023-02-21T01:30:06;2.60;;;1.67;;
10902;SDS011;5504;47.312;11.060;2023-02-21T01:32:50;4.03;;;1.97;;
10902;SDS011;5504;47.312;11.060;2023-02-21T01:35:34;1.80;;;1.60;;
10902;SDS011;5504;47.312;11.060;2023-02-21T01:38:18;1.93;;;1.70;;
10902;SDS011;5504;47.312;11.060;2023-02-21T01:41:02;1.97;;;1.70;;
10902;SDS011;5504;47.312;11.060;2023-02-21T01:44:03;1.90;;;1.53;;
10902;SDS011;5504;47.312;11.060;2023-02-21T01:47:11;2.83;;;1.47;;
10902;SDS011;5504;47.312;11.060;2023-02-21T01:49:56;1.80;;;1.43;;
10902;SDS011;5504;47.312;11.060;2023-02-21T01:52:45;2.83;;;1.63;;
10902;SDS011;5504;47.312;11.060;2023-02-21T01:55:31;3.17;;;1.50;;
10902;SDS011;5504;47.312;11.060;2023-02-21T01:58:16;3.23;;;1.67;;
10902;SDS011;5504;47.312;11.060;2023-02-21T02:01:04;2.67;;;2.00;;
10902;SDS011;5504;47.312;11.060;2023-02-21T02:03:48;2.77;;;1.70;;
10902;SDS011;5504;47.312;11.060;2023-02-21T02:06:33;2.57;;;1.60;;
10902;SDS011;5504;47.312;11.060;2023-02-21T02:09:18;2.50;;;1.60;;
10902;SDS011;5504;47.312;11.060;2023-02-21T02:12:09;2.57;;;1.80;;
10902;SDS011;5504;47.312;11.060;2023-02-21T02:14:52;2.37;;;1.57;;
10902;SDS011;5504;47.312;11.060;2023-02-21T02:26:26;3.10;;;1.40;;
10902;SDS011;5504;47.312;11.060;2023-02-21T02:32:05;3.07;;;1.57;;
10902;SDS011;5504;47.312;11.060;2023-02-21T02:42:37;4.23;;;1.90;;
10902;SDS011;5504;47.312;11.060;2023-02-21T02:45:22;2.03;;;1.63;;
10902;SDS011;5504;47.312;11.060;2023-02-21T02:51:06;2.30;;;1.77;;
10902;SDS011;5504;47.312;11.060;2023-02-21T02:53:35;2.23;;;1.50;;
10902;SDS011;5504;47.312;11.060;2023-02-21T02:56:02;3.20;;;1.63;;
10902;SDS011;5504;47.312;11.060;2023-02-21T02:58:30;2.03;;;1.57;;
10902;SDS011;5504;47.312;11.060;2023-02-21T03:09:08;2.73;;;1.70;;
10902;SDS011;5504;47.312;11.060;2023-02-21T03:14:36;2.17;;;1.60;;
10902;SDS011;5504;47.312;11.060;2023-02-21T03:17:10;2.53;;;1.63;;
10902;SDS011;5504;47.312;11.060;2023-02-21T03:19:41;1.70;;;1.30;;
10902;SDS011;5504;47.312;11.060;2023-02-21T03:22:12;2.93;;;1.37;;
10902;SDS011;5504;47.312;11.060;2023-02-21T03:24:41;1.93;;;1.53;;
10902;SDS011;5504;47.312;11.060;2023-02-21T03:27:08;2.40;;;1.50;;
10902;SDS011;5504;47.312;11.060;2023-02-21T03:29:35;2.23;;;1.40;;
10902;SDS011;5504;47.312;11.060;2023-02-21T03:32:14;1.50;;;1.30;;
10902;SDS011;5504;47.312;11.060;2023-02-21T03:34:44;1.93;;;1.40;;
10902;SDS011;5504;47.312;11.060;2023-02-21T03:37:20;1.80;;;1.50;;
10902;SDS011;5504;47.312;11.060;2023-02-21T03:39:54;2.60;;;1.57;;
10902;SDS011;5504;47.312;11.060;2023-02-21T03:42:20;2.70;;;1.50;;
10902;SDS011;5504;47.312;11.060;2023-02-21T03:44:46;2.60;;;1.30;;
10902;SDS011;5504;47.312;11.060;2023-02-21T03:47:12;2.63;;;1.50;;
10902;SDS011;5504;47.312;11.060;2023-02-21T03:49:37;1.63;;;1.43;;
10902;SDS011;5504;47.312;11.060;2023-02-21T03:52:03;3.37;;;1.60;;
10902;SDS011;5504;47.312;11.060;2023-02-21T03:54:29;2.33;;;1.57;;
10902;SDS011;5504;47.312;11.060;2023-02-21T03:56:55;2.00;;;1.60;;
10902;SDS011;5504;47.312;11.060;2023-02-21T03:59:20;2.27;;;1.50;;
10902;SDS011;5504;47.312;11.060;2023-02-21T04:01:46;2.17;;;1.57;;
10902;SDS011;5504;47.312;11.060;2023-02-21T04:04:12;2.23;;;1.40;;
10902;SDS011;5504;47.312;11.060;2023-02-21T04:06:37;3.40;;;1.37;;
10902;SDS011;5504;47.312;11.060;2023-02-21T04:09:03;2.03;;;1.27;;
10902;SDS011;5504;47.312;11.060;2023-02-21T04:11:29;2.23;;;1.50;;
10902;SDS011;5504;47.312;11.060;2023-02-21T04:13:55;2.47;;;1.37;;
10902;SDS011;5504;47.312;11.060;2023-02-21T04:16:21;2.37;;;1.30;;
10902;SDS011;5504;47.312;11.060;2023-02-21T04:18:46;2.60;;;1.40;;
10902;SDS011;5504;47.312;11.060;2023-02-21T04:21:15;3.10;;;1.40;;
10902;SDS011;5504;47.312;11.060;2023-02-21T04:23:42;2.97;;;1.63;;
10902;SDS011;5504;47.312;11.060;2023-02-21T04:26:08;1.60;;;1.37;;
10902;SDS011;5504;47.312;11.060;2023-02-21T04:28:33;2.47;;;1.37;;
10902;SDS011;5504;47.312;11.060;2023-02-21T04:30:59;2.43;;;1.30;;
10902;SDS011;5504;47.312;11.060;2023-02-21T04:33:25;2.40;;;1.37;;
10902;SDS011;5504;47.312;11.060;2023-02-21T04:35:50;2.80;;;1.70;;
10902;SDS011;5504;47.312;11.060;2023-02-21T04:38:16;2.77;;;1.43;;
10902;SDS011;5504;47.312;11.060;2023-02-21T04:40:42;2.73;;;1.60;;
10902;SDS011;5504;47.312;11.060;2023-02-21T04:43:08;2.60;;;1.40;;
10902;SDS011;5504;47.312;11.060;2023-02-21T04:45:34;3.80;;;1.70;;
10902;SDS011;5504;47.312;11.060;2023-02-21T04:47:59;1.40;;;1.30;;
10902;SDS011;5504;47.312;11.060;2023-02-21T04:50:25;3.23;;;1.50;;
10902;SDS011;5504;47.312;11.060;2023-02-21T04:52:52;1.80;;;1.53;;
10902;SDS011;5504;47.312;11.060;2023-02-21T04:55:18;4.03;;;1.70;;
10902;SDS011;5504;47.312;11.060;2023-02-21T04:57:44;1.60;;;1.50;;
10902;SDS011;5504;47.312;11.060;2023-02-21T05:00:10;1.57;;;1.47;;
10902;SDS011;5504;47.312;11.060;2023-02-21T05:02:36;2.33;;;1.60;;
10902;SDS011;5504;47.312;11.060;2023-02-21T05:05:02;2.77;;;1.50;;
10902;SDS011;5504;47.312;11.060;2023-02-21T05:07:28;2.93;;;1.50;;
10902;SDS011;5504;47.312;11.060;2023-02-21T05:09:53;2.53;;;1.57;;
10902;SDS011;5504;47.312;11.060;2023-02-21T05:12:19;3.57;;;1.70;;
10902;SDS011;5504;47.312;11.060;2023-02-21T05:14:45;1.63;;;1.37;;
10902;SDS011;5504;47.312;11.060;2023-02-21T05:17:11;2.37;;;1.50;;
10902;SDS011;5504;47.312;11.060;2023-02-21T05:19:36;2.20;;;1.60;;
10902;SDS011;5504;47.312;11.060;2023-02-21T05:22:02;3.23;;;1.70;;
10902;SDS011;5504;47.312;11.060;2023-02-21T05:24:31;2.77;;;1.53;;
10902;SDS011;5504;47.312;11.060;2023-02-21T05:26:57;1.90;;;1.40;;
10902;SDS011;5504;47.312;11.060;2023-02-21T05:29:23;2.60;;;1.40;;
10902;SDS011;5504;47.312;11.060;2023-02-21T05:31:50;2.73;;;1.73;;
10902;SDS011;5504;47.312;11.060;2023-02-21T05:34:15;1.97;;;1.40;;
10902;SDS011;5504;47.312;11.060;2023-02-21T05:36:43;1.70;;;1.43;;
10902;SDS011;5504;47.312;11.060;2023-02-21T05:39:09;2.67;;;1.70;;
10902;SDS011;5504;47.312;11.060;2023-02-21T05:41:35;2.43;;;1.50;;
10902;SDS011;5504;47.312;11.060;2023-02-21T05:44:02;2.07;;;1.30;;
10902;SDS011;5504;47.312;11.060;2023-02-21T05:48:56;2.70;;;1.70;;
10902;SDS011;5504;47.312;11.060;2023-02-21T05:51:23;1.87;;;1.57;;
10902;SDS011;5504;47.312;11.060;2023-02-21T05:53:50;3.37;;;2.23;;
10902;SDS011;5504;47.312;11.060;2023-02-21T05:56:16;2.60;;;2.10;;
10902;SDS011;5504;47.312;11.060;2023-02-21T05:58:43;3.87;;;1.73;;
10902;SDS011;5504;47.312;11.060;2023-02-21T06:01:08;3.13;;;2.00;;
10902;SDS011;5504;47.312;11.060;2023-02-21T06:03:34;2.60;;;1.60;;
10902;SDS011;5504;47.312;11.060;2023-02-21T06:06:00;2.13;;;1.50;;
10902;SDS011;5504;47.312;11.060;2023-02-21T06:08:26;2.73;;;1.50;;
10902;SDS011;5504;47.312;11.060;2023-02-21T06:10:51;2.80;;;1.70;;
10902;SDS011;5504;47.312;11.060;2023-02-21T06:13:17;2.90;;;1.40;;
10902;SDS011;5504;47.312;11.060;2023-02-21T06:15:43;3.13;;;1.50;;
10902;SDS011;5504;47.312;11.060;2023-02-21T06:18:11;1.67;;;1.40;;
10902;SDS011;5504;47.312;11.060;2023-02-21T06:20:40;2.67;;;1.70;;
10902;SDS011;5504;47.312;11.060;2023-02-21T06:23:06;2.53;;;1.70;;
10902;SDS011;5504;47.312;11.060;2023-02-21T06:25:31;1.77;;;1.40;;
10902;SDS011;5504;47.312;11.060;2023-02-21T06:27:57;2.90;;;1.60;;
10902;SDS011;5504;47.312;11.060;2023-02-21T06:30:23;2.50;;;1.30;;
10902;SDS011;5504;47.312;11.060;2023-02-21T06:32:49;3.40;;;1.70;;
10902;SDS011;5504;47.312;11.060;2023-02-21T06:35:15;2.63;;;1.50;;
10902;SDS011;5504;47.312;11.060;2023-02-21T06:37:40;2.47;;;1.70;;
10902;SDS011;5504;47.312;11.060;2023-02-21T06:40:07;1.80;;;1.60;;
10902;SDS011;5504;47.312;11.060;2023-02-21T06:42:33;2.90;;;1.80;;
10902;SDS011;5504;47.312;11.060;2023-02-21T06:44:58;2.43;;;1.90;;
10902;SDS011;5504;47.312;11.060;2023-02-21T06:47:24;3.73;;;1.70;;
10902;SDS011;5504;47.312;11.060;2023-02-21T06:49:50;3.30;;;1.70;;
10902;SDS011;5504;47.312;11.060;2023-02-21T06:52:15;2.17;;;1.77;;
10902;SDS011;5504;47.312;11.060;2023-02-21T06:54:41;6.03;;;1.80;;
10902;SDS011;5504;47.312;11.060;2023-02-21T06:57:07;3.60;;;1.70;;
10902;SDS011;5504;47.312;11.060;2023-02-21T06:59:32;2.90;;;1.80;;
10902;SDS011;5504;47.312;11.060;2023-02-21T07:01:58;4.43;;;2.27;;
10902;SDS011;5504;47.312;11.060;2023-02-21T07:04:24;3.33;;;1.60;;
10902;SDS011;5504;47.312;11.060;2023-02-21T07:06:50;4.47;;;2.20;;
10902;SDS011;5504;47.312;11.060;2023-02-21T07:09:16;4.87;;;2.13;;
10902;SDS011;5504;47.312;11.060;2023-02-21T07:11:42;3.37;;;2.10;;
10902;SDS011;5504;47.312;11.060;2023-02-21T07:14:10;6.13;;;2.47;;
10902;SDS011;5504;47.312;11.060;2023-02-21T07:16:36;5.13;;;2.23;;
10902;SDS011;5504;47.312;11.060;2023-02-21T07:19:02;7.73;;;2.80;;
10902;SDS011;5504;47.312;11.060;2023-02-21T07:21:28;6.47;;;2.40;;
10902;SDS011;5504;47.312;11.060;2023-02-21T07:23:54;5.87;;;2.37;;
10902;SDS011;5504;47.312;11.060;2023-02-21T07:26:20;5.37;;;2.20;;
10902;SDS011;5504;47.312;11.060;2023-02-21T07:28:46;3.70;;;1.73;;
10902;SDS011;5504;47.312;11.060;2023-02-21T07:31:13;4.77;;;2.17;;
10902;SDS011;5504;47.312;11.060;2023-02-21T07:33:38;2.97;;;2.00;;
10902;SDS011;5504;47.312;11.060;2023-02-21T07:36:04;3.07;;;1.90;;
10902;SDS011;5504;47.312;11.060;2023-02-21T07:38:30;4.03;;;2.10;;
10902;SDS011;5504;47.312;11.060;2023-02-21T07:40:56;3.93;;;2.07;;
10902;SDS011;5504;47.312;11.060;2023-02-21T07:43:24;2.60;;;2.00;;
10902;SDS011;5504;47.312;11.060;2023-02-21T07:45:50;4.90;;;2.20;;
10902;SDS011;5504;47.312;11.060;2023-02-21T07:48:16;2.80;;;2.30;;
10902;SDS011;5504;47.312;11.060;2023-02-21T07:50:42;6.40;;;3.70;;
10902;SDS011;5504;47.312;11.060;2023-02-21T07:53:08;6.13;;;3.87;;
10902;SDS011;5504;47.312;11.060;2023-02-21T07:55:35;6.83;;;3.73;;
10902;SDS011;5504;47.312;11.060;2023-02-21T07:58:01;4.83;;;3.50;;
10902;SDS011;5504;47.312;11.060;2023-02-21T08:00:27;5.97;;;3.63;;
10902;SDS011;5504;47.312;11.060;2023-02-21T08:02:53;12.03;;;7.97;;
10902;SDS011;5504;47.312;11.060;2023-02-21T08:05:19;11.87;;;7.80;;
10902;SDS011;5504;47.312;11.060;2023-02-21T08:07:45;7.13;;;5.40;;
10902;SDS011;5504;47.312;11.060;2023-02-21T08:10:13;9.40;;;5.57;;
10902;SDS011;5504;47.312;11.060;2023-02-21T08:12:43;9.10;;;5.50;;
10902;SDS011;5504;47.312;11.060;2023-02-21T08:15:09;9.87;;;6.00;;
10902;SDS011;5504;47.312;11.060;2023-02-21T08:17:35;13.83;;;6.50;;
10902;SDS011;5504;47.312;11.060;2023-02-21T08:20:01;7.00;;;5.53;;
10902;SDS011;5504;47.312;11.060;2023-02-21T08:22:27;10.47;;;5.67;;
10902;SDS011;5504;47.312;11.060;2023-02-21T08:24:52;9.17;;;5.37;;
10902;SDS011;5504;47.312;11.060;2023-02-21T08:27:18;10.37;;;4.90;;
10902;SDS011;5504;47.312;11.060;2023-02-21T08:29:44;10.60;;;5.73;;
10902;SDS011;5504;47.312;11.060;2023-02-21T08:32:13;6.70;;;4.90;;
10902;SDS011;5504;47.312;11.060;2023-02-21T08:34:39;6.80;;;4.07;;
10902;SDS011;5504;47.312;11.060;2023-02-21T08:37:04;6.23;;;3.70;;
10902;SDS011;5504;47.312;11.060;2023-02-21T08:39:44;6.33;;;3.63;;
10902;SDS011;5504;47.312;11.060;2023-02-21T08:42:11;6.77;;;3.10;;
10902;SDS011;5504;47.312;11.060;2023-02-21T08:44:37;6.40;;;3.50;;
10902;SDS011;5504;47.312;11.060;2023-02-21T08:47:03;5.63;;;2.57;;
10902;SDS011;5504;47.312;11.060;2023-02-21T08:49:29;5.13;;;2.90;;
10902;SDS011;5504;47.312;11.060;2023-02-21T08:51:54;6.23;;;3.00;;
10902;SDS011;5504;47.312;11.060;2023-02-21T08:54:20;6.97;;;3.83;;
10902;SDS011;5504;47.312;11.060;2023-02-21T08:56:45;5.93;;;3.97;;
10902;SDS011;5504;47.312;11.060;2023-02-21T08:59:12;7.40;;;4.00;;
10902;SDS011;5504;47.312;11.060;2023-02-21T09:01:38;5.83;;;3.77;;
10902;SDS011;5504;47.312;11.060;2023-02-21T09:04:04;7.07;;;4.63;;
10902;SDS011;5504;47.312;11.060;2023-02-21T09:06:30;5.17;;;3.90;;
10902;SDS011;5504;47.312;11.060;2023-02-21T09:08:56;7.63;;;3.57;;
10902;SDS011;5504;47.312;11.060;2023-02-21T09:11:22;5.57;;;3.57;;
10902;SDS011;5504;47.312;11.060;2023-02-21T09:13:47;7.60;;;3.63;;
10902;SDS011;5504;47.312;11.060;2023-02-21T09:16:13;6.10;;;3.17;;
10902;SDS011;5504;47.312;11.060;2023-02-21T09:18:39;6.53;;;3.17;;
10902;SDS011;5504;47.312;11.060;2023-02-21T09:21:05;6.47;;;2.63;;
10902;SDS011;5504;47.312;11.060;2023-02-21T09:23:31;4.37;;;2.77;;
10902;SDS011;5504;47.312;11.060;2023-02-21T09:25:57;5.20;;;3.50;;
10902;SDS011;5504;47.312;11.060;2023-02-21T09:28:23;7.43;;;4.13;;
10902;SDS011;5504;47.312;11.060;2023-02-21T09:30:49;8.93;;;3.90;;
10902;SDS011;5504;47.312;11.060;2023-02-21T09:33:15;9.47;;;4.43;;
10902;SDS011;5504;47.312;11.060;2023-02-21T09:35:41;6.33;;;3.77;;
10902;SDS011;5504;47.312;11.060;2023-02-21T09:38:07;7.63;;;4.93;;
10902;SDS011;5504;47.312;11.060;2023-02-21T09:43:38;5.77;;;2.83;;
10902;SDS011;5504;47.312;11.060;2023-02-21T09:49:16;6.10;;;2.97;;
10902;SDS011;5504;47.312;11.060;2023-02-21T09:51:49;4.33;;;2.93;;
10902;SDS011;5504;47.312;11.060;2023-02-21T09:54:18;9.67;;;5.97;;
10902;SDS011;5504;47.312;11.060;2023-02-21T09:56:49;5.43;;;2.70;;
10902;SDS011;5504;47.312;11.060;2023-02-21T09:59:15;4.10;;;2.43;;
10902;SDS011;5504;47.312;11.060;2023-02-21T10:10:35;7.20;;;2.43;;
10902;SDS011;5504;47.312;11.060;2023-02-21T10:16:11;4.40;;;2.80;;
10902;SDS011;5504;47.312;11.060;2023-02-21T10:18:55;3.73;;;2.50;;
10902;SDS011;5504;47.312;11.060;2023-02-21T10:21:55;4.77;;;2.97;;
10902;SDS011;5504;47.312;11.060;2023-02-21T10:24:24;5.53;;;2.83;;
10902;SDS011;5504;47.312;11.060;2023-02-21T10:27:01;4.73;;;2.70;;
10902;SDS011;5504;47.312;11.060;2023-02-21T10:29:36;3.67;;;2.37;;
10902;SDS011;5504;47.312;11.060;2023-02-21T10:32:03;5.90;;;2.70;;
10902;SDS011;5504;47.312;11.060;2023-02-21T10:34:30;4.53;;;2.07;;
10902;SDS011;5504;47.312;11.060;2023-02-21T10:37:00;3.50;;;1.90;;
10902;SDS011;5504;47.312;11.060;2023-02-21T10:39:50;5.17;;;2.40;;
10902;SDS011;5504;47.312;11.060;2023-02-21T10:42:29;4.30;;;2.57;;
10902;SDS011;5504;47.312;11.060;2023-02-21T10:45:00;2.83;;;1.80;;
10902;SDS011;5504;47.312;11.060;2023-02-21T10:47:32;4.17;;;2.10;;
10902;SDS011;5504;47.312;11.060;2023-02-21T10:50:08;2.67;;;1.73;;
10902;SDS011;5504;47.312;11.060;2023-02-21T10:52:36;3.90;;;1.90;;
10902;SDS011;5504;47.312;11.060;2023-02-21T10:55:20;4.37;;;1.90;;
10902;SDS011;5504;47.312;11.060;2023-02-21T10:57:52;4.10;;;1.80;;
10902;SDS011;5504;47.312;11.060;2023-02-21T11:00:23;4.47;;;2.13;;
10902;SDS011;5504;47.312;11.060;2023-02-21T11:02:50;4.03;;;2.00;;
10902;SDS011;5504;47.312;11.060;2023-02-21T11:05:26;3.83;;;1.90;;
10902;SDS011;5504;47.312;11.060;2023-02-21T11:07:59;3.20;;;1.73;;
10902;SDS011;5504;47.312;11.060;2023-02-21T11:10:37;3.77;;;1.70;;
10902;SDS011;5504;47.312;11.060;2023-02-21T11:13:12;2.50;;;1.67;;
10902;SDS011;5504;47.312;11.060;2023-02-21T11:15:40;2.33;;;1.70;;
10902;SDS011;5504;47.312;11.060;2023-02-21T11:18:17;1.97;;;1.53;;
10902;SDS011;5504;47.312;11.060;2023-02-21T11:20:47;3.83;;;1.60;;
10902;SDS011;5504;47.312;11.060;2023-02-21T11:23:20;2.90;;;1.60;;
10902;SDS011;5504;47.312;11.060;2023-02-21T11:25:50;2.60;;;1.60;;
10902;SDS011;5504;47.312;11.060;2023-02-21T11:28:21;3.50;;;1.80;;
10902;SDS011;5504;47.312;11.060;2023-02-21T11:30:49;2.72;;;1.40;;
10902;SDS011;5504;47.312;11.060;2023-02-21T11:33:24;4.00;;;1.50;;
10902;SDS011;5504;47.312;11.060;2023-02-21T11:35:51;2.17;;;1.38;;
10902;SDS011;5504;47.312;11.060;2023-02-21T11:38:35;3.07;;;1.20;;
10902;SDS011;5504;47.312;11.060;2023-02-21T11:41:17;3.17;;;1.10;;
10902;SDS011;5504;47.312;11.060;2023-02-21T11:43:53;3.80;;;1.10;;
10902;SDS011;5504;47.312;11.060;2023-02-21T11:46:24;4.83;;;1.50;;
10902;SDS011;5504;47.312;11.060;2023-02-21T11:49:16;4.63;;;1.73;;
10902;SDS011;5504;47.312;11.060;2023-02-21T11:52:05;3.15;;;1.92;;
10902;SDS011;5504;47.312;11.060;2023-02-21T11:54:35;4.07;;;1.88;;
10902;SDS011;5504;47.312;11.060;2023-02-21T11:57:08;4.82;;;1.60;;
10902;SDS011;5504;47.312;11.060;2023-02-21T11:59:58;4.40;;;1.63;;
10902;SDS011;5504;47.312;11.060;2023-02-21T12:08:09;2.60;;;1.60;;
10902;SDS011;5504;47.312;11.060;2023-02-21T12:13:47;3.23;;;1.63;;
10902;SDS011;5504;47.312;11.060;2023-02-21T12:19:06;3.58;;;1.98;;
10902;SDS011;5504;47.312;11.060;2023-02-21T12:38:06;3.67;;;1.52;;
10902;SDS011;5504;47.312;11.060;2023-02-21T12:40:41;2.17;;;1.23;;
10902;SDS011;5504;47.312;11.060;2023-02-21T12:46:20;4.15;;;1.40;;
10902;SDS011;5504;47.312;11.060;2023-02-21T12:52:35;1.90;;;1.45;;
10902;SDS011;5504;47.312;11.060;2023-02-21T12:54:41;3.37;;;1.37;;
10902;SDS011;5504;47.312;11.060;2023-02-21T12:57:17;4.05;;;1.48;;
10902;SDS011;5504;47.312;11.060;2023-02-21T13:05:46;3.10;;;1.30;;
10902;SDS011;5504;47.312;11.060;2023-02-21T13:08:23;3.67;;;1.40;;
10902;SDS011;5504;47.312;11.060;2023-02-21T13:13:33;2.72;;;1.20;;
10902;SDS011;5504;47.312;11.060;2023-02-21T13:16:02;3.72;;;1.42;;
10902;SDS011;5504;47.312;11.060;2023-02-21T13:18:45;3.22;;;1.60;;
10902;SDS011;5504;47.312;11.060;2023-02-21T13:29:52;4.38;;;1.35;;
10902;SDS011;5504;47.312;11.060;2023-02-21T13:32:37;1.73;;;1.30;;
10902;SDS011;5504;47.312;11.060;2023-02-21T13:35:04;1.92;;;1.25;;
10902;SDS011;5504;47.312;11.060;2023-02-21T13:37:34;1.70;;;1.10;;
10902;SDS011;5504;47.312;11.060;2023-02-21T13:43:01;3.22;;;1.23;;
10902;SDS011;5504;47.312;11.060;2023-02-21T13:45:33;3.17;;;1.20;;
10902;SDS011;5504;47.312;11.060;2023-02-21T14:03:53;4.03;;;1.55;;
10902;SDS011;5504;47.312;11.060;2023-02-21T14:09:03;2.10;;;1.50;;
10902;SDS011;5504;47.312;11.060;2023-02-21T14:11:34;4.07;;;1.50;;
10902;SDS011;5504;47.312;11.060;2023-02-21T14:17:00;4.22;;;1.65;;
10902;SDS011;5504;47.312;11.060;2023-02-21T14:19:33;5.43;;;1.80;;
10902;SDS011;5504;47.312;11.060;2023-02-21T14:22:09;3.75;;;1.80;;
10902;SDS011;5504;47.312;11.060;2023-02-21T14:24:46;2.55;;;1.67;;
10902;SDS011;5504;47.312;11.060;2023-02-21T14:29:43;3.28;;;1.80;;
10902;SDS011;5504;47.312;11.060;2023-02-21T14:32:34;2.22;;;1.45;;
10902;SDS011;5504;47.312;11.060;2023-02-21T14:37:44;2.55;;;1.60;;
10902;SDS011;5504;47.312;11.060;2023-02-21T14:40:32;4.55;;;1.60;;
10902;SDS011;5504;47.312;11.060;2023-02-21T14:52:13;3.30;;;1.50;;
10902;SDS011;5504;47.312;11.060;2023-02-21T14:55:08;3.53;;;1.48;;
10902;SDS011;5504;47.312;11.060;2023-02-21T14:58:00;4.07;;;1.50;;
10902;SDS011;5504;47.312;11.060;2023-02-21T15:04:20;4.97;;;1.40;;
10902;SDS011;5504;47.312;11.060;2023-02-21T15:09:40;2.67;;;1.20;;
10902;SDS011;5504;47.312;11.060;2023-02-21T15:12:12;3.80;;;1.60;;
10902;SDS011;5504;47.312;11.060;2023-02-21T15:14:46;4.30;;;1.40;;
10902;SDS011;5504;47.312;11.060;2023-02-21T15:17:18;3.38;;;1.58;;
10902;SDS011;5504;47.312;11.060;2023-02-21T15:19:46;4.47;;;1.50;;
10902;SDS011;5504;47.312;11.060;2023-02-21T15:22:22;3.58;;;1.40;;
10902;SDS011;5504;47.312;11.060;2023-02-21T15:24:56;3.17;;;1.42;;
10902;SDS011;5504;47.312;11.060;2023-02-21T15:27:31;3.53;;;1.50;;
10902;SDS011;5504;47.312;11.060;2023-02-21T15:30:05;3.15;;;1.25;;
10902;SDS011;5504;47.312;11.060;2023-02-21T15:32:37;2.73;;;1.40;;
10902;SDS011;5504;47.312;11.060;2023-02-21T15:35:09;2.20;;;1.20;;
10902;SDS011;5504;47.312;11.060;2023-02-21T15:37:42;3.17;;;1.20;;
10902;SDS011;5504;47.312;11.060;2023-02-21T15:40:16;3.63;;;1.40;;
10902;SDS011;5504;47.312;11.060;2023-02-21T15:42:45;3.17;;;1.33;;
10902;SDS011;5504;47.312;11.060;2023-02-21T15:47:56;4.07;;;1.70;;
10902;SDS011;5504;47.312;11.060;2023-02-21T15:50:37;2.87;;;1.43;;
10902;SDS011;5504;47.312;11.060;2023-02-21T15:53:09;3.50;;;1.43;;
10902;SDS011;5504;47.312;11.060;2023-02-21T15:55:36;3.77;;;1.60;;
10902;SDS011;5504;47.312;11.060;2023-02-21T16:00:44;2.93;;;2.13;;
10902;SDS011;5504;47.312;11.060;2023-02-21T16:08:38;4.80;;;2.57;;
10902;SDS011;5504;47.312;11.060;2023-02-21T16:11:17;5.00;;;3.00;;
10902;SDS011;5504;47.312;11.060;2023-02-21T16:13:44;5.20;;;3.50;;
10902;SDS011;5504;47.312;11.060;2023-02-21T16:16:10;8.10;;;3.80;;
10902;SDS011;5504;47.312;11.060;2023-02-21T16:18:36;8.60;;;4.90;;
10902;SDS011;5504;47.312;11.060;2023-02-21T16:21:04;9.50;;;5.17;;
10902;SDS011;5504;47.312;11.060;2023-02-21T16:23:33;9.90;;;5.60;;
10902;SDS011;5504;47.312;11.060;2023-02-21T16:28:41;10.20;;;5.30;;
10902;SDS011;5504;47.312;11.060;2023-02-21T16:31:41;8.30;;;4.80;;
10902;SDS011;5504;47.312;11.060;2023-02-21T16:34:01;6.77;;;4.40;;
10902;SDS011;5504;47.312;11.060;2023-02-21T16:36:28;8.83;;;5.23;;
10902;SDS011;5504;47.312;11.060;2023-02-21T16:38:55;5.67;;;3.07;;
10902;SDS011;5504;47.312;11.060;2023-02-21T16:41:22;3.57;;;2.27;;
10902;SDS011;5504;47.312;11.060;2023-02-21T16:43:48;4.97;;;2.00;;
10902;SDS011;5504;47.312;11.060;2023-02-21T16:46:14;3.30;;;1.70;;
10902;SDS011;5504;47.312;11.060;2023-02-21T16:48:46;7.33;;;2.17;;
10902;SDS011;5504;47.312;11.060;2023-02-21T16:51:12;3.87;;;1.67;;
10902;SDS011;5504;47.312;11.060;2023-02-21T16:53:38;2.20;;;1.70;;
10902;SDS011;5504;47.312;11.060;2023-02-21T16:56:04;4.53;;;1.70;;
10902;SDS011;5504;47.312;11.060;2023-02-21T16:58:43;6.23;;;1.70;;
10902;SDS011;5504;47.312;11.060;2023-02-21T17:01:26;7.37;;;2.20;;
10902;SDS011;5504;47.312;11.060;2023-02-21T17:03:53;5.63;;;1.77;;
10902;SDS011;5504;47.312;11.060;2023-02-21T17:06:19;6.53;;;1.90;;
10902;SDS011;5504;47.312;11.060;2023-02-21T17:08:47;5.90;;;1.93;;
10902;SDS011;5504;47.312;11.060;2023-02-21T17:11:13;5.67;;;1.60;;
10902;SDS011;5504;47.312;11.060;2023-02-21T17:13:39;3.97;;;1.70;;
10902;SDS011;5504;47.312;11.060;2023-02-21T17:16:05;6.40;;;1.70;;
10902;SDS011;5504;47.312;11.060;2023-02-21T17:18:31;2.80;;;1.50;;
10902;SDS011;5504;47.312;11.060;2023-02-21T17:20:57;4.13;;;1.60;;
10902;SDS011;5504;47.312;11.060;2023-02-21T17:23:24;3.20;;;1.40;;
10902;SDS011;5504;47.312;11.060;2023-02-21T17:25:50;2.90;;;1.63;;
10902;SDS011;5504;47.312;11.060;2023-02-21T17:28:15;5.13;;;1.93;;
10902;SDS011;5504;47.312;11.060;2023-02-21T17:30:41;5.70;;;1.73;;
10902;SDS011;5504;47.312;11.060;2023-02-21T17:33:07;4.50;;;1.80;;
10902;SDS011;5504;47.312;11.060;2023-02-21T17:35:35;4.03;;;1.70;;
10902;SDS011;5504;47.312;11.060;2023-02-21T17:38:01;4.53;;;1.83;;
10902;SDS011;5504;47.312;11.060;2023-02-21T17:40:28;2.33;;;1.60;;
10902;SDS011;5504;47.312;11.060;2023-02-21T17:42:54;6.87;;;1.90;;
10902;SDS011;5504;47.312;11.060;2023-02-21T17:45:21;4.87;;;1.40;;
10902;SDS011;5504;47.312;11.060;2023-02-21T17:47:48;4.40;;;1.90;;
10902;SDS011;5504;47.312;11.060;2023-02-21T17:52:40;4.83;;;1.60;;
10902;SDS011;5504;47.312;11.060;2023-02-21T17:55:07;4.23;;;1.70;;
10902;SDS011;5504;47.312;11.060;2023-02-21T17:57:35;2.00;;;1.40;;
10902;SDS011;5504;47.312;11.060;2023-02-21T18:00:05;3.90;;;1.50;;
10902;SDS011;5504;47.312;11.060;2023-02-21T18:02:34;3.37;;;1.40;;